Time;durP1;ratioP1;P1;durP2;ratioP2;P2;SDS_P1;SDS_P2;PMS_P1;PMS_P2;Temp;Humidity;BMP_temperature;BMP_pressure;BME280_temperature;BME280_humidity;BME280_pressure;Samples;Min_cycle;Max_cycle;Signal;HPM_P1;HPM_P2
2022/10/16 00:01:12;;;;;;;1.00;1.00;;;14.90;99.90;;;;;;494310;241;28404;-79
2022/10/16 00:03:14;;;;;;;1.43;1.10;;;14.80;99.90;;;;;;494340;241;28169;-80
2022/10/16 00:05:15;;;;;;;1.20;1.10;;;14.80;99.90;;;;;;494515;241;28461;-80
2022/10/16 00:07:16;;;;;;;1.00;0.90;;;14.80;99.90;;;;;;494298;241;28352;-80
2022/10/16 00:09:17;;;;;;;1.10;1.10;;;14.80;99.90;;;;;;494504;241;28462;-80
2022/10/16 00:11:19;;;;;;;1.00;1.00;;;14.90;99.90;;;;;;494503;241;28060;-80
2022/10/16 00:13:20;;;;;;;1.10;1.10;;;14.80;99.90;;;;;;494503;241;28303;-80
2022/10/16 00:15:21;;;;;;;0.93;0.93;;;14.90;99.90;;;;;;494331;241;28149;-80
2022/10/16 00:17:22;;;;;;;1.67;1.13;;;14.80;99.90;;;;;;494229;237;28154;-80
2022/10/16 00:19:24;;;;;;;0.90;0.90;;;14.90;99.90;;;;;;494487;241;28760;-79
2022/10/16 00:21:25;;;;;;;1.00;1.00;;;14.80;99.90;;;;;;494359;241;28822;-80
2022/10/16 00:23:26;;;;;;;1.00;1.00;;;14.90;99.90;;;;;;494349;237;28899;-80
2022/10/16 00:25:27;;;;;;;3.20;1.10;;;14.80;99.90;;;;;;494506;241;28960;-79
2022/10/16 00:27:29;;;;;;;1.03;1.03;;;14.90;99.90;;;;;;494303;241;28749;-81
2022/10/16 00:29:30;;;;;;;1.00;1.00;;;14.80;99.90;;;;;;494538;241;28277;-80
2022/10/16 00:31:31;;;;;;;1.10;1.10;;;14.90;99.90;;;;;;494512;241;28291;-79
2022/10/16 00:33:32;;;;;;;0.90;0.90;;;14.80;99.90;;;;;;494398;241;28245;-80
2022/10/16 00:35:34;;;;;;;0.97;0.80;;;14.80;99.90;;;;;;494542;241;28157;-80
2022/10/16 00:37:35;;;;;;;0.90;0.90;;;14.80;99.90;;;;;;494297;241;28676;-80
2022/10/16 00:39:36;;;;;;;0.83;0.83;;;14.80;99.90;;;;;;494366;241;28777;-80
2022/10/16 00:41:37;;;;;;;0.80;0.80;;;14.80;99.90;;;;;;494511;241;28384;-80
2022/10/16 00:43:39;;;;;;;1.00;1.00;;;14.70;99.90;;;;;;494504;241;28815;-80
2022/10/16 00:45:40;;;;;;;0.90;0.90;;;14.80;99.90;;;;;;494493;241;28774;-80
2022/10/16 00:47:41;;;;;;;0.80;0.80;;;14.80;99.90;;;;;;494354;237;29152;-81
2022/10/16 00:49:42;;;;;;;1.17;0.90;;;14.80;99.90;;;;;;494365;241;28372;-80
2022/10/16 00:51:44;;;;;;;1.77;0.80;;;14.80;99.90;;;;;;494512;241;28377;-80
2022/10/16 00:53:45;;;;;;;1.00;1.00;;;14.70;99.90;;;;;;494328;241;28063;-80
2022/10/16 00:55:46;;;;;;;1.30;0.83;;;14.70;99.90;;;;;;494307;241;28496;-80
2022/10/16 00:57:47;;;;;;;1.00;1.00;;;14.70;99.90;;;;;;494375;237;28751;-80
2022/10/16 00:59:49;;;;;;;1.00;1.00;;;14.70;99.90;;;;;;494497;241;28780;-80
2022/10/16 01:01:50;;;;;;;0.80;0.80;;;14.70;99.90;;;;;;494519;241;28221;-79
2022/10/16 01:03:51;;;;;;;1.00;0.90;;;14.70;99.90;;;;;;494332;241;28242;-80
2022/10/16 01:05:53;;;;;;;0.80;0.80;;;14.70;99.90;;;;;;494476;241;28891;-80
2022/10/16 01:07:54;;;;;;;0.87;0.87;;;14.70;99.90;;;;;;494406;241;29219;-80
2022/10/16 01:09:55;;;;;;;0.83;0.83;;;14.70;99.90;;;;;;494508;241;28922;-80
2022/10/16 01:11:56;;;;;;;0.87;0.87;;;14.70;99.90;;;;;;494479;241;28069;-80
2022/10/16 01:13:57;;;;;;;0.90;0.90;;;14.70;99.90;;;;;;494491;241;28168;-80
2022/10/16 01:15:59;;;;;;;0.80;0.80;;;14.70;99.90;;;;;;494265;241;28242;-80
2022/10/16 01:18:00;;;;;;;0.80;0.80;;;14.70;99.90;;;;;;494348;237;28655;-80
2022/10/16 01:20:04;;;;;;;0.80;0.80;;;14.70;99.90;;;;;;494291;241;28228;-80
2022/10/16 01:22:05;;;;;;;0.93;0.93;;;14.70;99.90;;;;;;494329;240;28259;-80
2022/10/16 01:24:06;;;;;;;2.10;0.80;;;14.70;99.90;;;;;;494302;241;28275;-79
2022/10/16 01:26:08;;;;;;;0.80;0.80;;;14.70;99.90;;;;;;494417;241;28177;-80
2022/10/16 01:28:09;;;;;;;0.90;0.90;;;14.60;99.90;;;;;;494299;241;28262;-80
2022/10/16 01:30:10;;;;;;;0.90;0.90;;;14.60;99.90;;;;;;494320;241;28270;-80
2022/10/16 01:32:11;;;;;;;1.00;0.90;;;14.60;99.90;;;;;;494487;241;29162;-79
2022/10/16 01:34:13;;;;;;;0.90;0.90;;;14.60;99.90;;;;;;494307;241;29192;-80
2022/10/16 01:36:14;;;;;;;1.10;1.00;;;14.60;99.90;;;;;;494239;241;28819;-80
2022/10/16 01:38:15;;;;;;;0.80;0.80;;;14.60;99.90;;;;;;494436;237;28272;-81
2022/10/16 01:40:16;;;;;;;0.90;0.90;;;14.60;99.90;;;;;;494408;241;28313;-82
2022/10/16 01:42:18;;;;;;;0.93;0.93;;;14.60;99.90;;;;;;494334;241;28234;-80
2022/10/16 01:44:19;;;;;;;0.93;0.93;;;14.60;99.90;;;;;;494337;241;28220;-80
2022/10/16 01:46:20;;;;;;;0.90;0.90;;;14.60;99.90;;;;;;494220;241;28357;-80
2022/10/16 01:48:22;;;;;;;1.07;0.90;;;14.60;99.90;;;;;;494465;241;28364;-80
2022/10/16 01:50:23;;;;;;;2.50;0.90;;;14.60;99.90;;;;;;494431;237;28070;-80
2022/10/16 01:52:24;;;;;;;1.10;1.10;;;14.60;99.90;;;;;;494338;241;28367;-80
2022/10/16 01:54:25;;;;;;;0.70;0.70;;;14.60;99.90;;;;;;494339;241;28796;-80
2022/10/16 01:56:26;;;;;;;1.43;0.83;;;14.60;99.90;;;;;;494245;241;28882;-80
2022/10/16 01:58:30;;;;;;;5.13;0.90;;;14.60;99.90;;;;;;494307;241;28954;-80
2022/10/16 02:00:29;;;;;;;1.17;0.80;;;14.60;99.90;;;;;;494205;241;28571;-80
2022/10/16 02:02:30;;;;;;;0.80;0.80;;;14.60;99.90;;;;;;494378;240;28263;-80
2022/10/16 02:04:31;;;;;;;0.77;0.77;;;14.60;99.90;;;;;;494267;241;28259;-80
2022/10/16 02:06:33;;;;;;;0.90;0.90;;;14.60;99.90;;;;;;494440;241;28064;-80
2022/10/16 02:08:34;;;;;;;0.80;0.80;;;14.60;99.90;;;;;;494321;241;28261;-80
2022/10/16 02:10:35;;;;;;;1.00;0.97;;;14.60;99.90;;;;;;494345;241;28339;-80
2022/10/16 02:12:36;;;;;;;0.80;0.80;;;14.50;99.90;;;;;;494519;241;28248;-81
2022/10/16 02:14:38;;;;;;;0.80;0.80;;;14.50;99.90;;;;;;494333;241;28183;-80
2022/10/16 02:16:39;;;;;;;0.70;0.70;;;14.50;99.90;;;;;;494236;241;28267;-80
2022/10/16 02:18:40;;;;;;;0.93;0.80;;;14.50;99.90;;;;;;494288;237;28736;-80
2022/10/16 02:20:41;;;;;;;1.57;0.90;;;14.50;99.90;;;;;;494326;241;28872;-80
2022/10/16 02:22:43;;;;;;;0.80;0.80;;;14.50;99.90;;;;;;494507;241;28816;-80
2022/10/16 02:24:44;;;;;;;0.70;0.70;;;14.40;99.90;;;;;;494468;241;28251;-80
2022/10/16 02:26:45;;;;;;;0.90;0.90;;;14.40;99.90;;;;;;494447;241;28261;-79
2022/10/16 02:28:46;;;;;;;0.80;0.80;;;14.40;99.90;;;;;;494464;241;28137;-80
2022/10/16 02:30:48;;;;;;;0.70;0.70;;;14.40;99.90;;;;;;494493;241;28079;-80
2022/10/16 02:32:49;;;;;;;2.97;0.90;;;14.40;99.90;;;;;;494487;241;28275;-80
2022/10/16 02:34:50;;;;;;;1.83;0.90;;;14.40;99.90;;;;;;494515;241;28084;-80
2022/10/16 02:36:51;;;;;;;0.90;0.90;;;14.40;99.90;;;;;;494257;241;28277;-80
2022/10/16 02:38:53;;;;;;;0.90;0.90;;;14.40;99.90;;;;;;494326;240;28153;-80
2022/10/16 02:40:54;;;;;;;0.80;0.80;;;14.40;99.90;;;;;;494325;241;28171;-79
2022/10/16 02:42:55;;;;;;;0.80;0.80;;;14.40;99.90;;;;;;494349;241;28780;-80
2022/10/16 02:44:56;;;;;;;0.83;0.83;;;14.30;99.90;;;;;;494481;241;28703;-80
2022/10/16 02:46:58;;;;;;;0.83;0.83;;;14.30;99.90;;;;;;494252;240;28857;-80
2022/10/16 02:48:59;;;;;;;1.10;0.83;;;14.30;99.90;;;;;;494444;237;28264;-80
2022/10/16 02:51:00;;;;;;;0.80;0.80;;;14.30;99.90;;;;;;494497;241;28156;-80
2022/10/16 02:53:01;;;;;;;0.80;0.70;;;14.30;99.90;;;;;;494487;241;28248;-80
2022/10/16 02:55:03;;;;;;;1.27;0.80;;;14.30;99.90;;;;;;494328;241;28233;-80
2022/10/16 02:57:04;;;;;;;0.70;0.70;;;14.30;99.90;;;;;;494282;241;28143;-80
2022/10/16 02:59:05;;;;;;;0.80;0.80;;;14.30;99.90;;;;;;494331;241;28166;-80
2022/10/16 03:01:06;;;;;;;2.40;0.73;;;14.30;99.90;;;;;;494331;240;28054;-80
2022/10/16 03:03:08;;;;;;;0.70;0.70;;;14.30;99.90;;;;;;494457;241;28044;-80
2022/10/16 03:05:09;;;;;;;1.37;0.90;;;14.30;99.90;;;;;;494321;240;28085;-79
2022/10/16 03:07:10;;;;;;;0.73;0.73;;;14.40;99.90;;;;;;494254;241;28942;-80
2022/10/16 03:09:11;;;;;;;0.80;0.80;;;14.30;99.90;;;;;;494501;241;28731;-80
2022/10/16 03:11:13;;;;;;;0.80;0.80;;;14.40;99.90;;;;;;494366;240;28092;-80
2022/10/16 03:13:14;;;;;;;1.77;0.80;;;14.30;99.90;;;;;;494328;241;28141;-80
2022/10/16 03:15:15;;;;;;;0.77;0.70;;;14.30;99.90;;;;;;494473;241;28276;-79
2022/10/16 03:17:16;;;;;;;0.80;0.80;;;14.30;99.90;;;;;;494403;237;28044;-80
2022/10/16 03:19:18;;;;;;;0.97;0.73;;;14.30;99.90;;;;;;494513;241;28095;-80
2022/10/16 03:21:19;;;;;;;0.70;0.70;;;14.30;99.90;;;;;;494485;241;28057;-80
2022/10/16 03:23:20;;;;;;;0.80;0.80;;;14.30;99.90;;;;;;494509;241;28208;-80
2022/10/16 03:25:21;;;;;;;1.43;0.80;;;14.30;99.90;;;;;;494330;238;28370;-80
2022/10/16 03:27:23;;;;;;;0.70;0.70;;;14.30;99.90;;;;;;494274;241;28127;-80
2022/10/16 03:29:25;;;;;;;0.70;0.70;;;14.30;99.90;;;;;;494331;241;28649;-80
2022/10/16 03:31:25;;;;;;;0.83;0.83;;;14.30;99.90;;;;;;494416;241;28700;-80
2022/10/16 03:33:26;;;;;;;0.70;0.70;;;14.30;99.90;;;;;;494350;241;28825;-80
2022/10/16 03:35:28;;;;;;;1.20;0.80;;;14.30;99.90;;;;;;494471;241;28050;-80
2022/10/16 03:37:29;;;;;;;0.80;0.80;;;14.30;99.90;;;;;;494377;237;28017;-81
2022/10/16 03:39:30;;;;;;;0.70;0.70;;;14.30;99.90;;;;;;494289;241;28242;-80
2022/10/16 03:41:31;;;;;;;0.90;0.90;;;14.30;99.90;;;;;;494488;241;28051;-80
2022/10/16 03:43:33;;;;;;;0.97;0.90;;;14.30;99.90;;;;;;494347;241;28259;-80
2022/10/16 03:45:34;;;;;;;0.90;0.90;;;14.30;99.90;;;;;;494485;241;28318;-80
2022/10/16 03:47:35;;;;;;;0.80;0.80;;;14.30;99.90;;;;;;494411;241;28101;-80
2022/10/16 03:49:36;;;;;;;0.90;0.90;;;14.30;99.90;;;;;;494499;241;28151;-80
2022/10/16 03:51:38;;;;;;;0.87;0.87;;;14.20;99.90;;;;;;494266;241;28726;-80
2022/10/16 03:53:39;;;;;;;0.87;0.87;;;14.20;99.90;;;;;;494440;241;28786;-79
2022/10/16 03:55:40;;;;;;;0.80;0.80;;;14.30;99.90;;;;;;494469;241;28538;-80
2022/10/16 03:57:43;;;;;;;0.80;0.80;;;;;;;;;;494233;241;28642;-81
2022/10/16 03:59:44;;;;;;;0.90;0.90;;;14.30;99.90;;;;;;494289;241;26369;-80
2022/10/16 04:01:45;;;;;;;0.87;0.87;;;14.20;99.90;;;;;;494535;241;28202;-80
2022/10/16 04:03:46;;;;;;;2.10;0.80;;;14.30;99.90;;;;;;494327;241;28062;-80
2022/10/16 04:05:48;;;;;;;0.90;0.90;;;14.20;99.90;;;;;;494502;241;28680;-80
2022/10/16 04:07:49;;;;;;;1.00;1.00;;;14.30;99.90;;;;;;494246;241;28738;-80
2022/10/16 04:09:51;;;;;;;0.93;0.93;;;14.20;99.90;;;;;;494288;241;28065;-80
2022/10/16 04:11:51;;;;;;;0.97;0.97;;;14.20;99.90;;;;;;494418;241;28139;-79
2022/10/16 04:13:53;;;;;;;1.03;1.03;;;14.20;99.90;;;;;;494286;241;28379;-79
2022/10/16 04:15:54;;;;;;;1.10;1.10;;;14.10;99.90;;;;;;494431;241;28144;-80
2022/10/16 04:17:55;;;;;;;1.10;1.10;;;14.10;99.90;;;;;;494371;241;28165;-80
2022/10/16 04:19:56;;;;;;;1.67;1.30;;;14.10;99.90;;;;;;494356;241;28119;-80
2022/10/16 04:21:58;;;;;;;1.70;1.03;;;14.00;99.90;;;;;;494276;241;28171;-80
2022/10/16 04:23:59;;;;;;;1.30;1.20;;;14.10;99.90;;;;;;494292;241;28124;-80
2022/10/16 04:26:00;;;;;;;1.07;1.07;;;14.10;99.90;;;;;;494275;241;28140;-79
2022/10/16 04:28:01;;;;;;;1.17;1.17;;;14.10;99.90;;;;;;494239;241;28036;-79
2022/10/16 04:30:03;;;;;;;1.20;1.20;;;14.20;99.90;;;;;;494287;241;28723;-80
2022/10/16 04:32:04;;;;;;;2.10;1.30;;;14.20;99.90;;;;;;494435;237;28510;-80
2022/10/16 04:34:05;;;;;;;1.03;1.03;;;14.20;99.90;;;;;;494308;241;28899;-80
2022/10/16 04:36:06;;;;;;;1.27;1.17;;;14.20;99.90;;;;;;494287;241;28170;-79
2022/10/16 04:38:09;;;;;;;1.10;1.10;;;;;;;;;;494350;241;28160;-81
2022/10/16 04:40:10;;;;;;;1.20;1.20;;;14.20;99.90;;;;;;494583;241;26477;-81
2022/10/16 04:42:11;;;;;;;1.33;1.30;;;14.20;99.90;;;;;;494609;241;28761;-80
2022/10/16 04:44:14;;;;;;;1.13;1.13;;;;;;;;;;494576;241;28746;-82
2022/10/16 04:46:15;;;;;;;1.10;1.10;;;14.20;99.90;;;;;;494390;241;26473;-81
2022/10/16 04:48:16;;;;;;;1.70;1.60;;;14.20;99.90;;;;;;494557;241;28120;-80
2022/10/16 04:50:18;;;;;;;1.50;1.40;;;14.20;99.90;;;;;;494443;241;28064;-80
2022/10/16 04:52:21;;;;;;;1.30;1.30;;;14.30;99.90;;;;;;494454;241;28165;-80
2022/10/16 04:54:20;;;;;;;1.50;1.40;;;14.20;99.90;;;;;;494145;241;28294;-80
2022/10/16 04:56:21;;;;;;;1.30;1.30;;;14.30;99.90;;;;;;494377;240;28961;-79
2022/10/16 04:58:23;;;;;;;1.67;1.57;;;14.30;99.90;;;;;;494388;237;28573;-81
2022/10/16 05:00:24;;;;;;;1.47;1.40;;;14.30;99.90;;;;;;494292;241;28739;-80
2022/10/16 05:02:25;;;;;;;2.20;1.40;;;14.30;99.90;;;;;;494521;241;28115;-79
2022/10/16 05:04:26;;;;;;;1.70;1.53;;;14.30;99.90;;;;;;494544;241;28033;-80
2022/10/16 05:06:28;;;;;;;2.30;1.50;;;14.40;99.90;;;;;;494442;241;28163;-80
2022/10/16 05:08:29;;;;;;;1.50;1.40;;;14.40;99.90;;;;;;494281;241;28045;-81
2022/10/16 05:10:30;;;;;;;1.50;1.40;;;14.40;99.90;;;;;;494486;241;28089;-80
2022/10/16 05:12:31;;;;;;;1.50;1.40;;;14.40;99.90;;;;;;494261;241;28158;-80
2022/10/16 05:14:33;;;;;;;1.40;1.30;;;14.40;99.90;;;;;;494429;241;28246;-80
2022/10/16 05:16:34;;;;;;;1.50;1.40;;;14.50;99.90;;;;;;494384;241;28064;-80
2022/10/16 05:18:35;;;;;;;1.40;1.40;;;14.50;99.90;;;;;;494441;241;28020;-80
2022/10/16 05:20:36;;;;;;;1.70;1.60;;;14.50;99.90;;;;;;494458;241;28628;-80
2022/10/16 05:22:38;;;;;;;1.63;1.53;;;14.50;99.90;;;;;;494462;241;28658;-79
2022/10/16 05:24:39;;;;;;;3.87;1.60;;;14.50;99.90;;;;;;494436;241;28557;-81
2022/10/16 05:26:40;;;;;;;1.47;1.40;;;14.50;99.90;;;;;;494444;241;28152;-79
2022/10/16 05:28:41;;;;;;;4.00;1.80;;;14.50;99.90;;;;;;494320;241;28204;-80
2022/10/16 05:30:43;;;;;;;1.33;1.33;;;14.50;99.90;;;;;;494482;237;28056;-80
2022/10/16 05:32:44;;;;;;;1.30;1.30;;;14.50;99.90;;;;;;494535;240;28046;-80
2022/10/16 05:34:45;;;;;;;1.70;1.60;;;14.50;99.90;;;;;;494510;241;28064;-80
2022/10/16 05:36:46;;;;;;;1.43;1.43;;;14.50;99.90;;;;;;494283;241;28264;-79
2022/10/16 05:38:49;;;;;;;1.63;1.53;;;;;;;;;;494301;241;28124;-80
2022/10/16 05:40:50;;;;;;;2.07;1.70;;;14.60;99.90;;;;;;494508;241;26460;-81
2022/10/16 05:42:51;;;;;;;1.50;1.43;;;14.60;99.90;;;;;;494473;241;28072;-80
2022/10/16 05:44:52;;;;;;;1.80;1.63;;;14.60;99.90;;;;;;494333;241;28171;-80
2022/10/16 05:46:54;;;;;;;1.67;1.57;;;14.60;99.90;;;;;;494487;237;28268;-80
2022/10/16 05:48:55;;;;;;;2.10;1.90;;;14.70;99.90;;;;;;494498;241;28052;-80
2022/10/16 05:50:57;;;;;;;1.50;1.40;;;14.70;99.90;;;;;;494379;241;28308;-80
2022/10/16 05:52:57;;;;;;;2.23;1.57;;;14.70;99.90;;;;;;494361;241;28174;-79
2022/10/16 05:54:59;;;;;;;1.60;1.50;;;14.70;99.90;;;;;;494316;241;28174;-80
2022/10/16 05:57:00;;;;;;;1.23;1.20;;;14.70;99.90;;;;;;494421;241;29313;-80
2022/10/16 05:59:01;;;;;;;1.50;1.40;;;14.70;99.90;;;;;;494510;241;28550;-78
2022/10/16 06:01:03;;;;;;;1.47;1.37;;;14.70;99.90;;;;;;494324;241;28637;-81
2022/10/16 06:03:06;;;;;;;1.20;1.20;;;14.70;99.90;;;;;;494337;241;28478;-80
2022/10/16 06:05:05;;;;;;;1.30;1.30;;;14.70;99.90;;;;;;494176;241;28228;-80
2022/10/16 06:07:06;;;;;;;1.43;1.33;;;14.70;99.90;;;;;;494279;241;28079;-80
2022/10/16 06:09:08;;;;;;;1.50;1.40;;;14.70;99.90;;;;;;494453;241;28279;-80
2022/10/16 06:11:09;;;;;;;1.40;1.30;;;14.60;99.90;;;;;;494336;241;28266;-79
2022/10/16 06:13:10;;;;;;;1.73;1.37;;;14.60;99.90;;;;;;494507;241;28300;-79
2022/10/16 06:15:11;;;;;;;2.27;1.60;;;14.60;99.90;;;;;;494536;241;28278;-80
2022/10/16 06:17:13;;;;;;;1.60;1.50;;;14.70;99.90;;;;;;494401;241;28256;-79
2022/10/16 06:19:15;;;;;;;1.20;1.10;;;14.70;99.90;;;;;;494308;241;28035;-79
2022/10/16 06:21:15;;;;;;;1.53;1.43;;;14.70;99.90;;;;;;494458;241;28674;-79
2022/10/16 06:23:16;;;;;;;1.50;1.40;;;14.70;99.90;;;;;;494300;241;28609;-80
2022/10/16 06:25:18;;;;;;;1.50;1.40;;;14.70;99.90;;;;;;494497;241;28694;-80
2022/10/16 06:27:19;;;;;;;1.30;1.20;;;14.70;99.90;;;;;;494395;237;28021;-80
2022/10/16 06:29:20;;;;;;;1.40;1.30;;;14.70;99.90;;;;;;494481;241;28237;-80
2022/10/16 06:31:21;;;;;;;1.43;1.33;;;14.80;99.90;;;;;;494468;241;28135;-80
2022/10/16 06:33:23;;;;;;;1.60;1.50;;;14.80;99.90;;;;;;494533;241;28394;-79
2022/10/16 06:35:24;;;;;;;1.30;1.20;;;14.80;99.90;;;;;;494397;241;28279;-79
2022/10/16 06:37:25;;;;;;;1.77;1.40;;;14.80;99.90;;;;;;494430;241;28202;-80
2022/10/16 06:39:26;;;;;;;1.33;1.33;;;14.70;99.90;;;;;;494518;241;28162;-80
2022/10/16 06:41:28;;;;;;;1.60;1.50;;;14.80;99.90;;;;;;494363;240;28254;-80
2022/10/16 06:43:31;;;;;;;1.40;1.30;;;14.80;99.90;;;;;;494327;241;28466;-79
2022/10/16 06:45:30;;;;;;;1.20;1.20;;;14.90;99.90;;;;;;494199;241;28832;-80
2022/10/16 06:47:31;;;;;;;1.63;1.30;;;14.90;99.90;;;;;;494281;241;28848;-79
2022/10/16 06:49:33;;;;;;;1.40;1.30;;;14.90;99.90;;;;;;494476;241;28304;-79
2022/10/16 06:51:36;;;;;;;1.70;1.40;;;15.00;99.90;;;;;;494371;241;28351;-79
2022/10/16 06:53:35;;;;;;;1.60;1.50;;;15.00;99.90;;;;;;494420;241;28352;-79
2022/10/16 06:55:36;;;;;;;1.50;1.40;;;15.10;99.90;;;;;;494514;241;28678;-79
2022/10/16 06:57:38;;;;;;;1.60;1.50;;;15.10;99.90;;;;;;494257;241;28869;-80
2022/10/16 06:59:39;;;;;;;1.30;1.30;;;15.20;99.90;;;;;;494338;241;28345;-79
2022/10/16 07:01:40;;;;;;;1.30;1.30;;;15.30;99.90;;;;;;494511;241;28181;-79
2022/10/16 07:03:41;;;;;;;1.37;1.30;;;15.30;99.90;;;;;;494355;241;28348;-80
2022/10/16 07:05:43;;;;;;;1.40;1.40;;;15.30;99.90;;;;;;494372;241;28291;-80
2022/10/16 07:07:44;;;;;;;1.37;1.37;;;15.40;99.90;;;;;;494369;237;29178;-79
2022/10/16 07:09:45;;;;;;;1.53;1.43;;;15.40;99.90;;;;;;494340;241;29198;-80
2022/10/16 07:11:46;;;;;;;1.73;1.63;;;15.40;99.90;;;;;;494361;241;29169;-80
2022/10/16 07:13:48;;;;;;;1.63;1.53;;;15.40;99.90;;;;;;494356;241;28491;-79
2022/10/16 07:15:49;;;;;;;1.50;1.43;;;15.40;99.90;;;;;;494326;241;28783;-80
2022/10/16 07:17:50;;;;;;;2.50;1.80;;;15.40;99.90;;;;;;494270;241;28692;-80
2022/10/16 07:19:53;;;;;;;1.80;1.70;;;15.50;99.90;;;;;;494369;241;28778;-79
2022/10/16 07:21:53;;;;;;;1.90;1.80;;;15.50;99.90;;;;;;494453;241;28703;-80
2022/10/16 07:23:54;;;;;;;1.80;1.70;;;15.60;99.90;;;;;;494377;239;28464;-79
2022/10/16 07:25:55;;;;;;;1.70;1.60;;;15.60;99.90;;;;;;494340;241;28797;-80
2022/10/16 07:27:56;;;;;;;2.00;1.90;;;15.70;99.90;;;;;;494354;237;28671;-80
2022/10/16 07:29:58;;;;;;;1.80;1.70;;;15.70;99.90;;;;;;494361;241;29274;-79
2022/10/16 07:31:59;;;;;;;1.87;1.77;;;15.70;99.90;;;;;;494556;241;29683;-80
2022/10/16 07:34:00;;;;;;;2.10;2.00;;;15.70;99.90;;;;;;494578;237;29309;-79
2022/10/16 07:36:01;;;;;;;1.83;1.73;;;15.70;99.90;;;;;;494564;241;29138;-79
2022/10/16 07:38:03;;;;;;;1.80;1.70;;;15.60;99.90;;;;;;494520;241;28702;-79
2022/10/16 07:40:04;;;;;;;1.87;1.77;;;15.60;99.90;;;;;;494355;241;28711;-79
2022/10/16 07:42:05;;;;;;;1.70;1.60;;;15.60;99.90;;;;;;494383;241;28700;-80
2022/10/16 07:44:06;;;;;;;1.80;1.70;;;15.60;99.90;;;;;;494539;240;28778;-79
2022/10/16 07:46:08;;;;;;;2.20;1.97;;;15.50;99.90;;;;;;494426;241;28703;-79
2022/10/16 07:48:09;;;;;;;1.90;1.80;;;15.60;99.90;;;;;;494489;241;28683;-80
2022/10/16 07:50:10;;;;;;;3.37;1.83;;;15.60;99.90;;;;;;494316;241;28754;-79
2022/10/16 07:52:11;;;;;;;1.90;1.80;;;15.60;99.90;;;;;;494332;241;28696;-79
2022/10/16 07:54:13;;;;;;;2.50;1.60;;;15.60;99.90;;;;;;494350;241;29181;-80
2022/10/16 07:56:14;;;;;;;1.70;1.60;;;15.50;99.90;;;;;;494419;237;29231;-79
2022/10/16 07:58:15;;;;;;;1.70;1.60;;;15.50;99.90;;;;;;494310;241;29107;-79
2022/10/16 08:00:16;;;;;;;1.80;1.70;;;15.50;99.90;;;;;;494480;241;28397;-80
2022/10/16 08:02:18;;;;;;;1.60;1.50;;;15.60;99.90;;;;;;494521;241;28483;-79
2022/10/16 08:04:19;;;;;;;2.50;2.10;;;15.60;99.90;;;;;;494301;241;28694;-80
2022/10/16 08:06:20;;;;;;;1.77;1.67;;;15.50;99.90;;;;;;494219;241;28782;-79
2022/10/16 08:08:21;;;;;;;1.83;1.73;;;15.50;99.90;;;;;;494290;241;28719;-79
2022/10/16 08:10:23;;;;;;;3.07;1.90;;;15.50;99.90;;;;;;494326;241;28706;-80
2022/10/16 08:12:24;;;;;;;4.10;2.17;;;15.50;99.90;;;;;;494473;241;28404;-79
2022/10/16 08:14:25;;;;;;;4.17;1.73;;;15.40;99.90;;;;;;494419;241;28685;-79
2022/10/16 08:16:26;;;;;;;2.43;2.03;;;15.50;99.90;;;;;;494395;241;28701;-80
2022/10/16 08:18:28;;;;;;;1.83;1.70;;;15.70;99.90;;;;;;494279;241;29302;-80
2022/10/16 08:20:29;;;;;;;1.77;1.67;;;15.80;99.90;;;;;;494325;241;29258;-80
2022/10/16 08:22:30;;;;;;;1.43;1.33;;;15.90;99.90;;;;;;494457;241;29213;-79
2022/10/16 08:24:32;;;;;;;1.57;1.50;;;16.10;99.90;;;;;;494449;241;28776;-80
2022/10/16 08:26:33;;;;;;;1.80;1.70;;;16.20;99.90;;;;;;494412;241;28663;-80
2022/10/16 08:28:34;;;;;;;1.80;1.70;;;16.30;99.90;;;;;;494459;241;28711;-80
2022/10/16 08:30:35;;;;;;;1.80;1.70;;;16.40;99.90;;;;;;494461;241;28777;-80
2022/10/16 08:32:36;;;;;;;2.10;1.70;;;16.50;99.90;;;;;;494306;241;28901;-80
2022/10/16 08:34:38;;;;;;;1.60;1.50;;;16.60;99.90;;;;;;494292;241;28767;-80
2022/10/16 08:36:39;;;;;;;2.00;1.90;;;16.60;99.90;;;;;;494436;241;28708;-80
2022/10/16 08:38:40;;;;;;;1.70;1.60;;;16.60;99.90;;;;;;494390;237;28708;-80
2022/10/16 08:40:41;;;;;;;2.23;1.80;;;16.60;99.90;;;;;;494295;241;28822;-80
2022/10/16 08:42:43;;;;;;;2.07;1.97;;;16.60;99.90;;;;;;494293;241;29176;-79
2022/10/16 08:44:44;;;;;;;2.30;2.03;;;16.70;99.90;;;;;;494292;237;29255;-80
2022/10/16 08:46:45;;;;;;;1.87;1.77;;;16.70;99.90;;;;;;494424;241;28674;-80
2022/10/16 08:48:46;;;;;;;2.97;1.67;;;16.80;99.90;;;;;;494381;237;28679;-80
2022/10/16 08:50:48;;;;;;;2.20;2.00;;;16.80;99.90;;;;;;494474;238;28692;-80
2022/10/16 08:52:49;;;;;;;2.67;1.80;;;16.90;99.90;;;;;;494289;241;28798;-80
2022/10/16 08:54:50;;;;;;;1.80;1.70;;;17.10;99.90;;;;;;494326;239;28708;-80
2022/10/16 08:56:51;;;;;;;1.90;1.80;;;17.20;99.90;;;;;;494444;241;28695;-79
2022/10/16 08:58:53;;;;;;;2.87;1.87;;;17.30;99.90;;;;;;494286;237;28779;-80
2022/10/16 09:00:54;;;;;;;2.83;2.17;;;17.40;99.90;;;;;;494303;241;28711;-80
2022/10/16 09:02:55;;;;;;;2.13;1.93;;;17.50;99.90;;;;;;494465;241;28694;-79
2022/10/16 09:04:56;;;;;;;1.80;1.70;;;17.50;99.90;;;;;;494476;241;29196;-79
2022/10/16 09:06:58;;;;;;;2.70;1.97;;;17.50;99.90;;;;;;494199;241;29310;-80
2022/10/16 09:08:59;;;;;;;2.60;2.33;;;17.50;99.90;;;;;;494414;241;29198;-80
2022/10/16 09:11:05;;;;;;;2.00;1.90;;;17.30;99.90;;;;;;494309;241;28685;-80
2022/10/16 09:13:04;;;;;;;2.47;2.23;;;17.30;99.90;;;;;;494227;241;28783;-80
2022/10/16 09:15:06;;;;;;;2.17;2.07;;;17.40;99.90;;;;;;494468;241;28751;-80
2022/10/16 09:17:07;;;;;;;1.90;1.80;;;17.40;99.90;;;;;;494456;241;29366;-79
2022/10/16 09:19:08;;;;;;;2.00;1.90;;;17.50;99.90;;;;;;494418;241;28695;-80
2022/10/16 09:21:09;;;;;;;3.20;2.30;;;17.50;99.90;;;;;;494352;241;29192;-80
2022/10/16 09:23:11;;;;;;;2.30;2.20;;;17.40;99.90;;;;;;494452;241;28783;-78
2022/10/16 09:25:12;;;;;;;3.80;2.30;;;17.40;99.90;;;;;;494232;241;28775;-79
2022/10/16 09:27:13;;;;;;;2.13;2.00;;;17.50;99.90;;;;;;494373;241;28700;-83
2022/10/16 09:29:14;;;;;;;3.93;2.00;;;17.60;99.90;;;;;;494246;237;28791;-80
2022/10/16 09:31:16;;;;;;;3.50;2.20;;;17.70;99.90;;;;;;494235;241;28751;-80
2022/10/16 09:33:17;;;;;;;2.70;2.33;;;17.70;99.90;;;;;;494446;241;28773;-80
2022/10/16 09:35:18;;;;;;;2.27;2.17;;;17.70;99.90;;;;;;494449;241;28711;-80
2022/10/16 09:37:19;;;;;;;2.60;2.03;;;17.60;99.90;;;;;;494192;241;28785;-80
2022/10/16 09:39:21;;;;;;;4.57;2.37;;;17.60;99.90;;;;;;494241;241;28704;-80
2022/10/16 09:41:22;;;;;;;3.93;2.30;;;17.60;99.90;;;;;;494249;241;29280;-80
2022/10/16 09:43:24;;;;;;;3.30;2.60;;;17.70;99.90;;;;;;494271;241;29197;-80
2022/10/16 09:45:24;;;;;;;2.30;2.20;;;17.70;99.90;;;;;;494200;241;28811;-80
2022/10/16 09:47:26;;;;;;;4.37;2.10;;;17.70;99.90;;;;;;494170;237;28803;-80
2022/10/16 09:49:27;;;;;;;2.90;2.40;;;17.70;99.90;;;;;;494420;241;28787;-79
2022/10/16 09:51:28;;;;;;;4.03;2.30;;;17.60;99.90;;;;;;494406;241;28775;-80
2022/10/16 09:53:29;;;;;;;3.10;2.20;;;17.60;99.90;;;;;;494237;241;28693;-79
2022/10/16 09:55:31;;;;;;;2.03;1.90;;;17.50;99.90;;;;;;494359;241;28677;-80
2022/10/16 09:57:32;;;;;;;2.30;2.20;;;17.60;99.90;;;;;;494329;241;28707;-79
2022/10/16 09:59:33;;;;;;;3.03;2.30;;;17.60;99.90;;;;;;494388;241;28703;-79
2022/10/16 10:01:34;;;;;;;2.20;2.10;;;17.70;99.90;;;;;;494426;241;28704;-80
2022/10/16 10:03:36;;;;;;;2.27;2.10;;;17.70;99.90;;;;;;494269;241;29346;-80
2022/10/16 10:05:37;;;;;;;3.17;2.53;;;17.80;99.90;;;;;;494248;241;29199;-80
2022/10/16 10:07:38;;;;;;;2.60;2.40;;;18.10;99.90;;;;;;494368;241;29248;-80
2022/10/16 10:09:39;;;;;;;2.20;2.10;;;18.20;99.90;;;;;;494402;241;28763;-80
2022/10/16 10:11:41;;;;;;;2.77;1.93;;;18.30;99.90;;;;;;494400;241;28679;-79
2022/10/16 10:13:42;;;;;;;3.30;2.40;;;18.40;99.90;;;;;;494269;240;28840;-79
2022/10/16 10:15:43;;;;;;;2.87;2.10;;;18.50;99.90;;;;;;494229;241;28884;-80
2022/10/16 10:17:44;;;;;;;2.00;1.90;;;18.50;99.90;;;;;;494339;241;28682;-80
2022/10/16 10:19:46;;;;;;;1.93;1.83;;;18.60;99.90;;;;;;494236;241;28798;-80
2022/10/16 10:21:47;;;;;;;2.83;2.10;;;18.50;99.90;;;;;;494403;241;28759;-80
2022/10/16 10:23:48;;;;;;;3.23;2.00;;;18.40;99.90;;;;;;494253;241;28768;-80
2022/10/16 10:25:49;;;;;;;3.00;2.17;;;18.30;99.90;;;;;;494196;241;28806;-79
2022/10/16 10:27:51;;;;;;;2.37;2.17;;;18.30;99.90;;;;;;494387;239;28677;-79
2022/10/16 10:29:52;;;;;;;2.50;1.97;;;18.40;99.90;;;;;;494423;241;28699;-79
2022/10/16 10:31:53;;;;;;;2.23;2.13;;;18.40;99.90;;;;;;494262;241;29278;-80